createdAt,value
2023-04-08T00:02:27.466Z,5.40
2023-04-08T00:05:14.755Z,5.40
2023-04-08T00:08:02.152Z,5.40
2023-04-08T00:10:49.787Z,5.40
2023-04-08T00:13:38.619Z,5.50
2023-04-08T00:16:26.032Z,5.50
2023-04-08T00:19:13.179Z,5.50
2023-04-08T00:22:00.570Z,5.40
2023-04-08T00:24:47.949Z,5.40
2023-04-08T00:27:35.627Z,5.40
2023-04-08T00:30:24.212Z,5.40
2023-04-08T00:33:11.782Z,5.40
2023-04-08T00:35:59.679Z,5.50
2023-04-08T00:38:47.015Z,5.40
2023-04-08T00:41:35.303Z,5.40
2023-04-08T00:44:22.912Z,5.50
2023-04-08T00:47:15.496Z,5.50
2023-04-08T00:50:03.041Z,5.50
2023-04-08T00:52:50.648Z,5.50
2023-04-08T00:55:37.903Z,5.50
2023-04-08T00:58:25.331Z,5.50
2023-04-08T01:01:20.638Z,5.50
2023-04-08T01:04:18.494Z,5.50
2023-04-08T01:07:16.018Z,5.40
2023-04-08T01:10:08.833Z,5.50
2023-04-08T01:12:58.242Z,5.40
2023-04-08T01:15:46.379Z,5.40
2023-04-08T01:18:37.596Z,5.50
2023-04-08T01:21:28.864Z,5.50
2023-04-08T01:24:21.310Z,5.50
2023-04-08T01:27:11.652Z,5.50
2023-04-08T01:30:00.532Z,5.50
2023-04-08T01:32:48.892Z,5.50
2023-04-08T01:35:37.350Z,5.50
2023-04-08T01:38:26.925Z,5.50
2023-04-08T01:41:14.511Z,5.50
2023-04-08T01:44:04.010Z,5.50
2023-04-08T01:46:52.261Z,5.50
2023-04-08T01:49:40.333Z,5.50
2023-04-08T01:52:29.915Z,5.50
2023-04-08T01:55:17.700Z,5.50
2023-04-08T01:58:08.377Z,5.50
2023-04-08T02:00:59.579Z,5.50
2023-04-08T02:03:48.620Z,5.50
2023-04-08T02:06:36.616Z,5.50
2023-04-08T02:09:23.791Z,5.40
2023-04-08T02:12:11.476Z,5.50
2023-04-08T02:14:58.826Z,5.50
2023-04-08T02:17:50.432Z,5.40
2023-04-08T02:20:44.267Z,5.50
2023-04-08T02:23:34.588Z,5.50
2023-04-08T02:26:23.424Z,5.50
2023-04-08T02:29:15.610Z,5.40
2023-04-08T02:32:05.140Z,5.50
2023-04-08T02:34:55.899Z,5.50
2023-04-08T02:37:43.461Z,5.50
2023-04-08T02:40:33.451Z,5.50
2023-04-08T02:43:21.277Z,5.40
2023-04-08T02:46:09.365Z,5.50
2023-04-08T02:48:57.023Z,5.50
2023-04-08T02:51:46.012Z,5.50
2023-04-08T02:54:33.391Z,5.50
2023-04-08T02:57:20.611Z,5.50
2023-04-08T03:00:09.401Z,5.50
2023-04-08T03:02:57.215Z,5.50
2023-04-08T03:05:44.804Z,5.50
2023-04-08T03:08:33.851Z,5.60
2023-04-08T03:11:21.451Z,5.50
2023-04-08T03:14:09.260Z,5.50
2023-04-08T03:16:56.879Z,5.50
2023-04-08T03:19:44.125Z,5.50
2023-04-08T03:22:31.552Z,5.50
2023-04-08T03:25:20.475Z,5.50
2023-04-08T03:28:07.668Z,5.50
2023-04-08T03:30:54.952Z,5.50
2023-04-08T03:33:42.556Z,5.50
2023-04-08T03:36:29.944Z,5.50
2023-04-08T03:39:17.303Z,5.50
2023-04-08T03:42:06.167Z,5.50
2023-04-08T03:44:53.639Z,5.50
2023-04-08T03:47:41.150Z,5.50
2023-04-08T03:50:28.580Z,5.50
2023-04-08T03:53:16.184Z,5.60
2023-04-08T03:56:04.553Z,5.60
2023-04-08T03:58:53.384Z,5.50
2023-04-08T04:01:41.966Z,5.50
2023-04-08T04:04:29.723Z,5.50
2023-04-08T04:07:16.882Z,5.60
2023-04-08T04:10:04.515Z,5.60
2023-04-08T04:12:52.022Z,5.60
2023-04-08T04:15:42.144Z,5.50
2023-04-08T04:18:29.538Z,5.60
2023-04-08T04:21:16.984Z,5.60
2023-04-08T04:24:04.324Z,5.60
2023-04-08T04:26:51.885Z,5.60
2023-04-08T04:29:39.553Z,5.70
2023-04-08T04:32:28.370Z,5.60
2023-04-08T04:35:15.500Z,5.60
2023-04-08T04:38:03.192Z,5.60
2023-04-08T04:40:50.530Z,5.70
2023-04-08T04:43:37.722Z,5.70
2023-04-08T04:46:25.253Z,5.70
2023-04-08T04:49:14.004Z,5.70
2023-04-08T04:52:01.476Z,5.60
2023-04-08T04:54:48.658Z,5.70
2023-04-08T04:57:36.181Z,5.70
2023-04-08T05:00:24.823Z,5.70
2023-04-08T05:03:12.038Z,5.80
2023-04-08T05:06:01.090Z,6.00
2023-04-08T05:08:48.556Z,5.80
2023-04-08T05:11:36.353Z,5.80
2023-04-08T05:14:23.909Z,5.80
2023-04-08T05:17:11.320Z,5.90
2023-04-08T05:19:58.768Z,5.80
2023-04-08T05:22:47.569Z,5.80
2023-04-08T05:25:34.894Z,5.80
2023-04-08T05:28:21.971Z,5.90
2023-04-08T05:31:09.247Z,5.90
2023-04-08T05:33:56.700Z,5.90
2023-04-08T05:36:44.117Z,5.90
2023-04-08T05:39:32.922Z,5.90
2023-04-08T05:42:20.197Z,5.90
2023-04-08T05:45:08.896Z,5.90
2023-04-08T05:47:56.060Z,5.90
2023-04-08T05:50:44.089Z,6.00
2023-04-08T05:53:31.676Z,6.00
2023-04-08T05:56:20.921Z,6.00
2023-04-08T05:59:08.233Z,6.10
2023-04-08T06:01:56.970Z,6.10
2023-04-08T06:04:44.643Z,6.10
2023-04-08T06:07:33.336Z,6.10
2023-04-08T06:10:20.775Z,6.20
2023-04-08T06:13:09.444Z,6.20
2023-04-08T06:15:56.907Z,6.20
2023-04-08T06:18:44.866Z,6.30
2023-04-08T06:21:32.191Z,6.30
2023-04-08T06:24:20.021Z,6.40
2023-04-08T06:27:07.756Z,6.40
2023-04-08T06:29:57.270Z,6.40
2023-04-08T06:32:47.257Z,6.40
2023-04-08T06:35:34.648Z,6.50
2023-04-08T06:38:22.013Z,6.60
2023-04-08T06:41:10.000Z,6.60
2023-04-08T06:43:58.302Z,6.70
2023-04-08T06:46:47.110Z,6.80
2023-04-08T06:49:34.267Z,6.80
2023-04-08T06:52:21.880Z,6.70
2023-04-08T06:55:09.884Z,6.70
2023-04-08T06:57:57.276Z,6.80
2023-04-08T07:00:44.772Z,6.90
2023-04-08T07:03:33.619Z,6.90
2023-04-08T07:06:21.277Z,7.00
2023-04-08T07:09:09.449Z,6.90
2023-04-08T07:11:58.556Z,7.00
2023-04-08T07:14:46.100Z,7.10
2023-04-08T07:17:33.965Z,7.20
2023-04-08T07:20:22.868Z,7.30
2023-04-08T07:23:10.290Z,7.20
2023-04-08T07:26:02.650Z,7.30
2023-04-08T07:28:50.819Z,7.30
2023-04-08T07:31:38.236Z,7.40
2023-04-08T07:34:25.659Z,7.40
2023-04-08T07:37:14.611Z,7.50
2023-04-08T07:40:01.741Z,7.50
2023-04-08T07:42:49.215Z,7.60
2023-04-08T07:45:36.649Z,7.60
2023-04-08T07:48:23.864Z,7.50
2023-04-08T07:51:11.806Z,7.50
2023-04-08T07:54:01.102Z,7.50
2023-04-08T07:56:48.259Z,7.50
2023-04-08T07:59:36.120Z,7.50
2023-04-08T08:02:23.706Z,7.50
2023-04-08T08:05:11.184Z,7.40
2023-04-08T08:07:58.161Z,7.40
2023-04-08T08:10:46.974Z,7.50
2023-04-08T08:13:34.737Z,7.60
2023-04-08T08:16:22.176Z,7.50
2023-04-08T08:19:09.768Z,7.60
2023-04-08T08:21:56.929Z,7.60
2023-04-08T08:24:44.288Z,7.60
2023-04-08T08:27:34.376Z,7.90
2023-04-08T08:30:22.342Z,7.80
2023-04-08T08:33:09.519Z,7.70
2023-04-08T08:35:58.079Z,7.80
2023-04-08T08:38:45.427Z,7.90
2023-04-08T08:41:36.469Z,7.80
2023-04-08T08:44:25.741Z,7.90
2023-04-08T08:47:13.186Z,7.90
2023-04-08T08:50:00.678Z,7.80
2023-04-08T08:52:51.116Z,7.80
2023-04-08T08:56:05.586Z,7.90
2023-04-08T08:58:47.327Z,7.90
2023-04-08T09:01:38.580Z,8.10
2023-04-08T09:04:26.921Z,8.30
2023-04-08T09:07:14.688Z,8.50
2023-04-08T09:10:01.924Z,8.50
2023-04-08T09:12:56.829Z,8.50
2023-04-08T09:16:02.757Z,8.40
2023-04-08T09:18:52.264Z,8.40
2023-04-08T09:21:41.208Z,8.30
2023-04-08T09:24:30.270Z,8.40
2023-04-08T09:27:17.721Z,8.40
2023-04-08T09:30:17.747Z,8.50
2023-04-08T09:33:07.328Z,8.50
2023-04-08T09:35:56.741Z,8.80
2023-04-08T09:38:44.273Z,8.90
2023-04-08T09:41:36.052Z,9.00
2023-04-08T09:44:24.697Z,9.00
2023-04-08T09:47:20.075Z,9.10
2023-04-08T09:50:09.417Z,9.20
2023-04-08T09:53:03.159Z,9.40
2023-04-08T09:55:54.192Z,9.30
2023-04-08T09:58:47.325Z,9.50
2023-04-08T10:01:47.135Z,9.60
2023-04-08T10:04:38.086Z,9.80
2023-04-08T10:07:25.537Z,9.80
2023-04-08T10:10:14.151Z,9.80
2023-04-08T10:13:02.245Z,9.90
2023-04-08T10:15:49.618Z,9.70
2023-04-08T10:18:38.242Z,9.60
2023-04-08T10:21:36.106Z,9.80
2023-04-08T10:24:25.652Z,9.80
2023-04-08T10:27:41.546Z,9.90
2023-04-08T10:30:45.692Z,9.80
2023-04-08T10:33:37.208Z,9.90
2023-04-08T10:36:26.257Z,9.90
2023-04-08T10:39:15.505Z,9.90
2023-04-08T10:42:04.216Z,9.90
2023-04-08T10:44:52.988Z,10.10
2023-04-08T10:47:39.981Z,10.10
2023-04-08T10:50:27.346Z,10.40
2023-04-08T10:53:14.828Z,10.60
2023-04-08T10:56:07.084Z,10.60
2023-04-08T10:58:57.232Z,10.60
2023-04-08T11:01:48.396Z,10.50
2023-04-08T11:04:43.233Z,10.40
2023-04-08T11:07:31.171Z,10.30
2023-04-08T11:10:18.512Z,10.10
2023-04-08T11:13:08.779Z,10.10
2023-04-08T11:15:56.370Z,9.90
2023-04-08T11:18:46.264Z,10.00
2023-04-08T11:21:36.285Z,10.20
2023-04-08T11:24:23.588Z,10.20
2023-04-08T11:27:11.033Z,10.30
2023-04-08T11:29:59.217Z,10.40
2023-04-08T11:32:46.732Z,10.60
2023-04-08T11:35:35.605Z,10.40
2023-04-08T11:38:24.381Z,10.50
2023-04-08T11:41:12.231Z,10.50
2023-04-08T11:43:59.464Z,10.50
2023-04-08T11:46:55.393Z,10.60
2023-04-08T11:49:46.443Z,10.70
2023-04-08T11:52:45.716Z,10.60
2023-04-08T11:55:34.322Z,10.60
2023-04-08T11:58:21.799Z,10.60
2023-04-08T12:01:09.309Z,10.70
2023-04-08T12:03:58.400Z,10.80
2023-04-08T12:06:47.130Z,10.90
2023-04-08T12:09:35.787Z,10.90
2023-04-08T12:12:23.209Z,11.00
2023-04-08T12:15:11.446Z,11.10
2023-04-08T12:17:58.546Z,10.90
2023-04-08T12:20:46.186Z,10.80
2023-04-08T12:23:33.790Z,10.90
2023-04-08T12:26:22.654Z,11.10
2023-04-08T12:29:11.760Z,11.30
2023-04-08T12:31:59.538Z,11.50
2023-04-08T12:34:46.581Z,11.60
2023-04-08T12:37:34.232Z,11.40
2023-04-08T12:40:21.379Z,11.40
2023-04-08T12:43:10.029Z,11.50
2023-04-08T12:45:57.620Z,11.30
2023-04-08T12:51:35.635Z,11.40
2023-04-08T12:54:22.720Z,11.70
2023-04-08T12:57:10.502Z,11.80
2023-04-08T12:59:59.295Z,11.80
2023-04-08T13:02:46.835Z,12.00
2023-04-08T13:05:43.296Z,11.90
2023-04-08T13:08:31.276Z,12.10
2023-04-08T13:11:18.803Z,12.10
2023-04-08T13:14:06.229Z,12.20
2023-04-08T13:16:55.028Z,12.40
2023-04-08T13:19:42.055Z,12.50
2023-04-08T13:22:29.523Z,12.40
2023-04-08T13:25:17.051Z,12.10
2023-04-08T13:28:04.568Z,11.90
2023-04-08T13:30:52.219Z,12.00
2023-04-08T13:33:40.806Z,11.90
2023-04-08T13:36:28.937Z,12.00
2023-04-08T13:39:16.363Z,12.00
2023-04-08T13:42:04.107Z,11.90
2023-04-08T13:44:51.417Z,11.80
2023-04-08T13:47:38.996Z,11.90
2023-04-08T13:50:27.935Z,12.10
2023-04-08T13:53:17.444Z,12.20
2023-04-08T13:56:05.397Z,12.10
2023-04-08T13:58:57.152Z,12.10
2023-04-08T14:01:45.208Z,12.20
2023-04-08T14:04:33.533Z,12.30
2023-04-08T14:07:22.348Z,12.40
2023-04-08T14:10:10.869Z,12.50
2023-04-08T14:12:58.164Z,12.50
2023-04-08T14:15:46.632Z,12.60
2023-04-08T14:18:34.064Z,12.50
2023-04-08T14:21:21.567Z,12.40
2023-04-08T14:24:10.375Z,12.20
2023-04-08T14:26:57.776Z,12.30
2023-04-08T14:29:45.010Z,12.40
2023-04-08T14:32:32.517Z,12.40
2023-04-08T14:35:19.947Z,12.40
2023-04-08T14:38:07.484Z,12.40
2023-04-08T14:40:56.335Z,12.40
2023-04-08T14:43:43.664Z,12.30
2023-04-08T14:46:31.638Z,12.10
2023-04-08T14:49:18.620Z,12.20
2023-04-08T14:52:06.195Z,12.30
2023-04-08T14:54:53.725Z,12.40
2023-04-08T14:57:42.539Z,12.60
2023-04-08T15:00:29.820Z,12.60
2023-04-08T15:03:18.013Z,12.70
2023-04-08T15:06:17.716Z,12.60
2023-04-08T15:09:05.939Z,12.60
2023-04-08T15:11:53.165Z,12.60
2023-04-08T15:14:41.982Z,12.60
2023-04-08T15:17:29.275Z,12.70
2023-04-08T15:20:18.505Z,12.80
2023-04-08T15:23:06.046Z,12.80
2023-04-08T15:25:53.340Z,12.70
2023-04-08T15:28:40.685Z,12.70
2023-04-08T15:31:29.407Z,12.50
2023-04-08T15:34:16.728Z,12.50
2023-04-08T15:37:04.333Z,12.40
2023-04-08T15:39:53.621Z,12.30
2023-04-08T15:42:40.949Z,12.30
2023-04-08T15:45:28.536Z,12.10
2023-04-08T15:48:17.105Z,12.20
2023-04-08T15:51:08.492Z,12.30
2023-04-08T15:53:55.521Z,12.40
2023-04-08T15:56:44.371Z,12.50
2023-04-08T15:59:32.166Z,12.60
2023-04-08T16:02:19.672Z,12.70
2023-04-08T16:05:09.160Z,12.70
2023-04-08T16:07:56.482Z,12.80
2023-04-08T16:10:44.224Z,12.80
2023-04-08T16:13:32.428Z,12.70
2023-04-08T16:16:19.665Z,12.60
2023-04-08T16:19:07.440Z,12.40
2023-04-08T16:21:56.568Z,12.40
2023-04-08T16:24:43.927Z,12.40
2023-04-08T16:27:31.312Z,12.30
2023-04-08T16:30:18.894Z,12.20
2023-04-08T16:33:06.255Z,12.10
2023-04-08T16:35:54.166Z,12.10
2023-04-08T16:38:42.539Z,12.00
2023-04-08T16:41:29.883Z,11.90
2023-04-08T16:44:17.371Z,11.80
2023-04-08T16:47:05.048Z,11.40
2023-04-08T16:49:52.859Z,11.00
2023-04-08T16:52:40.175Z,10.70
2023-04-08T16:55:29.011Z,10.60
2023-04-08T16:58:16.136Z,10.30
2023-04-08T17:01:08.542Z,10.00
2023-04-08T17:03:57.226Z,10.00
2023-04-08T17:06:44.485Z,9.70
2023-04-08T17:09:32.104Z,9.60
2023-04-08T17:12:21.069Z,9.50
2023-04-08T17:15:09.942Z,9.50
2023-04-08T17:17:57.396Z,9.20
2023-04-08T17:20:44.840Z,9.00
2023-04-08T17:23:31.970Z,9.00
2023-04-08T17:26:19.339Z,8.90
2023-04-08T17:29:07.872Z,8.80
2023-04-08T17:31:55.367Z,8.70
2023-04-08T17:34:42.866Z,8.70
2023-04-08T17:37:30.073Z,8.70
2023-04-08T17:40:17.984Z,8.70
2023-04-08T17:43:05.519Z,8.60
2023-04-08T17:45:54.363Z,8.50
2023-04-08T17:48:42.078Z,8.40
2023-04-08T17:51:30.198Z,8.40
2023-04-08T17:54:17.863Z,8.30
2023-04-08T17:57:05.365Z,8.20
2023-04-08T17:59:52.849Z,8.10
2023-04-08T18:02:42.174Z,8.20
2023-04-08T18:05:30.078Z,8.10
2023-04-08T18:08:17.338Z,8.10
2023-04-08T18:11:06.040Z,8.10
2023-04-08T18:13:53.555Z,8.00
2023-04-08T18:16:41.327Z,7.90
2023-04-08T18:19:29.963Z,7.90
2023-04-08T18:22:17.404Z,7.90
2023-04-08T18:25:05.239Z,7.80
2023-04-08T18:27:52.520Z,7.80
2023-04-08T18:30:40.239Z,7.90
2023-04-08T18:33:27.475Z,7.90
2023-04-08T18:36:17.385Z,7.90
2023-04-08T18:39:04.858Z,7.90
2023-04-08T18:41:52.221Z,7.90
2023-04-08T18:44:39.586Z,7.90
2023-04-08T18:47:27.068Z,7.90
2023-04-08T18:50:14.517Z,7.70
2023-04-08T18:53:03.304Z,7.70
2023-04-08T18:55:51.181Z,7.70
2023-04-08T18:58:38.526Z,7.80
2023-04-08T19:01:28.654Z,7.80
2023-04-08T19:04:16.665Z,7.90
2023-04-08T19:07:04.055Z,7.90
2023-04-08T19:09:57.566Z,7.90
2023-04-08T19:12:45.452Z,7.80
2023-04-08T19:15:33.271Z,7.70
2023-04-08T19:18:20.784Z,7.60
2023-04-08T19:21:08.256Z,7.60
2023-04-08T19:23:55.618Z,7.70
2023-04-08T19:26:44.588Z,7.80
2023-04-08T19:29:33.947Z,7.80
2023-04-08T19:32:21.694Z,7.80
2023-04-08T19:35:12.198Z,7.60
2023-04-08T19:37:59.826Z,7.60
2023-04-08T19:40:48.071Z,7.50
2023-04-08T19:43:36.914Z,7.50
2023-04-08T19:46:24.007Z,7.50
2023-04-08T19:49:11.480Z,7.50
2023-04-08T19:51:59.193Z,7.50
2023-04-08T19:54:50.219Z,7.50
2023-04-08T19:57:37.647Z,7.50
2023-04-08T20:00:29.481Z,7.60
2023-04-08T20:03:17.154Z,7.60
2023-04-08T20:06:05.605Z,7.70
2023-04-08T20:08:54.014Z,7.70
2023-04-08T20:11:42.067Z,7.70
2023-04-08T20:14:29.497Z,7.60
2023-04-08T20:17:20.775Z,7.60
2023-04-08T20:20:09.429Z,7.60
2023-04-08T20:22:56.897Z,7.60
2023-04-08T20:25:44.561Z,7.60
2023-04-08T20:28:31.892Z,7.60
2023-04-08T20:31:19.456Z,7.60
2023-04-08T20:34:08.477Z,7.60
2023-04-08T20:36:56.010Z,7.60
2023-04-08T20:39:43.376Z,7.60
2023-04-08T20:42:30.909Z,7.60
2023-04-08T20:45:18.318Z,7.70
2023-04-08T20:48:07.301Z,7.60
2023-04-08T20:50:56.173Z,7.50
2023-04-08T20:53:44.534Z,7.50
2023-04-08T20:56:32.158Z,7.50
2023-04-08T20:59:19.242Z,7.50
2023-04-08T21:02:07.783Z,7.50
2023-04-08T21:04:55.419Z,7.50
2023-04-08T21:07:45.013Z,7.50
2023-04-08T21:10:32.105Z,7.40
2023-04-08T21:13:19.474Z,7.30
2023-04-08T21:16:07.525Z,7.20
2023-04-08T21:18:54.781Z,7.20
2023-04-08T21:21:42.318Z,7.20
2023-04-08T21:24:31.302Z,7.20
2023-04-08T21:27:19.027Z,7.10
2023-04-08T21:30:07.323Z,7.10
2023-04-08T21:32:54.835Z,7.10
2023-04-08T21:35:42.308Z,7.10
2023-04-08T21:38:29.652Z,7.20
2023-04-08T21:41:18.536Z,7.30
2023-04-08T21:44:05.785Z,7.10
2023-04-08T21:46:54.065Z,7.00
2023-04-08T21:49:41.829Z,6.90
2023-04-08T21:52:28.902Z,6.90
2023-04-08T21:55:16.180Z,6.90
2023-04-08T21:58:04.973Z,6.90
2023-04-08T22:00:52.982Z,6.70
2023-04-08T22:03:40.119Z,6.60
2023-04-08T22:06:32.623Z,6.50
2023-04-08T22:09:20.412Z,6.40
2023-04-08T22:12:07.993Z,6.40
2023-04-08T22:14:56.995Z,6.50
2023-04-08T22:17:44.042Z,6.40
2023-04-08T22:20:31.844Z,6.40
2023-04-08T22:23:18.978Z,6.30
2023-04-08T22:26:06.362Z,6.10
2023-04-08T22:28:54.253Z,5.90
2023-04-08T22:31:43.292Z,5.70
2023-04-08T22:34:30.432Z,5.90
2023-04-08T22:37:17.898Z,5.80
2023-04-08T22:40:06.236Z,5.80
2023-04-08T22:42:53.640Z,5.80
2023-04-08T22:45:41.145Z,5.70
2023-04-08T22:48:29.518Z,5.50
2023-04-08T22:51:16.917Z,5.40
2023-04-08T22:54:04.365Z,5.50
2023-04-08T22:56:51.940Z,5.50
2023-04-08T22:59:39.403Z,5.50
2023-04-08T23:02:26.494Z,5.40
2023-04-08T23:05:15.454Z,5.20
2023-04-08T23:08:02.670Z,4.80
2023-04-08T23:10:49.880Z,4.80
2023-04-08T23:13:37.389Z,4.90
2023-04-08T23:16:25.203Z,5.00
2023-04-08T23:19:12.577Z,4.70
2023-04-08T23:22:01.304Z,4.50
2023-04-08T23:24:48.532Z,4.40
2023-04-08T23:27:36.157Z,4.60
2023-04-08T23:30:23.271Z,4.30
2023-04-08T23:33:10.835Z,4.10
2023-04-08T23:35:58.279Z,4.10
2023-04-08T23:38:47.271Z,4.20
2023-04-08T23:41:34.218Z,4.00
2023-04-08T23:44:21.557Z,4.10
2023-04-08T23:47:09.064Z,4.20
2023-04-08T23:49:56.541Z,4.20
2023-04-08T23:52:43.945Z,4.30
2023-04-08T23:55:32.926Z,4.30
2023-04-08T23:58:20.061Z,4.30
